Time;durP1;ratioP1;P1;durP2;ratioP2;P2;SDS_P1;SDS_P2;PMS_P1;PMS_P2;Temp;Humidity;BMP_temperature;BMP_pressure;BME280_temperature;BME280_humidity;BME280_pressure;Samples;Min_cycle;Max_cycle;Signal;HPM_P1;HPM_P2
2023/03/24 00:00:00;;;;;;;5.60;5.40;;;10.40;74.70;;;;;;6264784;28;20249;-82
2023/03/24 00:03:04;;;;;;;5.43;5.20;;;10.40;74.60;;;;;;6277453;28;20241;-81
2023/03/24 00:06:13;;;;;;;6.03;5.60;;;10.40;74.50;;;;;;6256883;28;20242;-84
2023/03/24 00:09:17;;;;;;;5.73;5.27;;;10.40;74.50;;;;;;6251438;28;20244;-83
2023/03/24 00:12:22;;;;;;;5.40;5.20;;;10.50;74.30;;;;;;6262604;28;20237;-81
2023/03/24 00:15:26;;;;;;;4.57;4.47;;;10.40;74.40;;;;;;6263456;28;20242;-81
2023/03/24 00:18:31;;;;;;;5.17;4.97;;;10.40;74.50;;;;;;6269855;28;20233;-81
2023/03/24 00:21:36;;;;;;;5.30;5.00;;;10.30;74.60;;;;;;6271760;28;20284;-80
2023/03/24 00:24:39;;;;;;;5.20;4.70;;;10.30;74.70;;;;;;6260255;28;20237;-81
2023/03/24 00:27:47;;;;;;;4.87;4.77;;;10.30;74.70;;;;;;6261624;28;20278;-82
2023/03/24 00:30:52;;;;;;;5.43;5.13;;;10.30;74.60;;;;;;6236568;28;20685;-80
2023/03/24 00:33:55;;;;;;;5.30;5.10;;;10.30;74.50;;;;;;6259405;28;20749;-80
2023/03/24 00:36:59;;;;;;;4.97;4.87;;;10.30;74.60;;;;;;6263741;28;20770;-82
2023/03/24 00:40:05;;;;;;;5.07;4.93;;;10.30;74.70;;;;;;6252782;28;20245;-82
2023/03/24 00:43:12;;;;;;;5.10;5.00;;;10.30;74.70;;;;;;6263075;28;20376;-80
2023/03/24 00:46:26;;;;;;;5.03;4.83;;;10.30;74.60;;;;;;6255142;28;20237;-82
2023/03/24 00:49:41;;;;;;;4.93;4.77;;;10.30;74.50;;;;;;6260315;28;20239;-81
2023/03/24 00:52:46;;;;;;;5.10;4.90;;;10.40;74.50;;;;;;6261975;28;20230;-81
2023/03/24 00:55:50;;;;;;;5.07;4.67;;;10.30;74.50;;;;;;6260375;28;20655;-81
2023/03/24 00:58:56;;;;;;;4.90;4.80;;;10.30;74.60;;;;;;6260901;28;20236;-81
2023/03/24 01:01:59;;;;;;;4.90;4.50;;;10.30;74.60;;;;;;6245278;28;20676;-83
2023/03/24 01:05:03;;;;;;;4.70;4.40;;;10.30;74.70;;;;;;6262174;28;20234;-82
2023/03/24 01:08:07;;;;;;;4.70;4.60;;;10.40;74.40;;;;;;6260717;28;20463;-79
2023/03/24 01:11:11;;;;;;;4.83;4.43;;;10.40;74.50;;;;;;6244318;28;20242;-79
2023/03/24 01:14:17;;;;;;;6.10;4.87;;;10.40;74.40;;;;;;6251395;28;20643;-80
2023/03/24 01:17:24;;;;;;;5.23;4.80;;;10.40;74.40;;;;;;6264477;28;20245;-82
2023/03/24 01:20:31;;;;;;;5.07;4.87;;;10.40;74.50;;;;;;6274886;28;20234;-81
2023/03/24 01:23:35;;;;;;;4.63;4.40;;;10.40;74.40;;;;;;6281189;28;20346;-83
2023/03/24 01:26:38;;;;;;;4.93;4.73;;;10.50;74.40;;;;;;6274973;28;20234;-80
2023/03/24 01:29:43;;;;;;;4.63;4.43;;;10.50;74.30;;;;;;6267749;28;20256;-79
2023/03/24 01:32:47;;;;;;;5.27;5.07;;;10.40;74.40;;;;;;6250877;28;20659;-78
2023/03/24 01:35:50;;;;;;;5.93;5.53;;;10.50;74.40;;;;;;6270979;28;20803;-81
2023/03/24 01:38:57;;;;;;;5.80;5.40;;;10.40;74.60;;;;;;6256254;28;20236;-81
2023/03/24 01:42:00;;;;;;;5.43;5.23;;;10.40;74.60;;;;;;6284349;28;20733;-81
2023/03/24 01:45:43;;;;;;;5.20;4.80;;;10.40;74.60;;;;;;6271908;28;20237;-81
2023/03/24 01:48:52;;;;;;;4.80;4.60;;;10.40;74.50;;;;;;6255119;28;20643;-82
2023/03/24 01:51:57;;;;;;;4.87;4.77;;;10.40;74.60;;;;;;6247988;28;20231;-81
2023/03/24 01:55:06;;;;;;;7.20;6.73;;;10.50;74.50;;;;;;6245113;28;20281;-80
2023/03/24 01:58:10;;;;;;;5.10;4.90;;;10.50;74.40;;;;;;6245434;28;20250;-81
2023/03/24 02:01:16;;;;;;;4.73;4.47;;;10.50;74.40;;;;;;6267263;28;20234;-80
2023/03/24 02:04:20;;;;;;;5.40;5.00;;;10.60;74.30;;;;;;6250180;28;20260;-80
2023/03/24 02:07:31;;;;;;;5.33;4.57;;;10.60;74.40;;;;;;6258678;28;20360;-81
2023/03/24 02:10:37;;;;;;;4.30;4.20;;;10.60;74.40;;;;;;6279853;28;20248;-81
2023/03/24 02:13:40;;;;;;;4.30;4.20;;;10.60;74.40;;;;;;6277970;28;20241;-81
2023/03/24 02:17:09;;;;;;;4.63;4.47;;;10.60;74.40;;;;;;6284326;28;20257;-82
2023/03/24 02:20:45;;;;;;;4.70;4.50;;;10.50;74.60;;;;;;6267823;28;20241;-83
2023/03/24 02:24:30;;;;;;;4.50;4.30;;;10.50;74.70;;;;;;6283998;28;20824;-79
2023/03/24 02:28:03;;;;;;;4.37;4.10;;;10.50;74.60;;;;;;6256203;28;20625;-79
2023/03/24 02:31:27;;;;;;;4.23;4.13;;;10.60;74.40;;;;;;6262177;28;20386;-81
2023/03/24 02:35:00;;;;;;;4.00;3.90;;;10.70;74.20;;;;;;6264132;28;20238;-82
2023/03/24 02:38:19;;;;;;;4.30;4.03;;;10.70;74.30;;;;;;6264572;28;20598;-82
2023/03/24 02:41:31;;;;;;;4.37;4.20;;;10.70;74.10;;;;;;6216526;28;20713;-81
2023/03/24 02:44:43;;;;;;;4.53;4.33;;;10.80;74.00;;;;;;6267376;28;20642;-80
2023/03/24 02:47:57;;;;;;;3.97;3.83;;;10.80;73.70;;;;;;6266589;28;20254;-82
2023/03/24 02:51:08;;;;;;;4.30;4.17;;;11.00;73.40;;;;;;6263007;28;20244;-79
2023/03/24 02:54:16;;;;;;;4.20;4.10;;;11.00;73.50;;;;;;6258360;28;20242;-82
2023/03/24 02:57:28;;;;;;;4.20;4.10;;;11.00;73.50;;;;;;6263335;28;20376;-84
2023/03/24 03:00:35;;;;;;;4.40;4.20;;;11.00;74.20;;;;;;6237697;28;20469;-82
2023/03/24 03:03:42;;;;;;;5.10;4.57;;;10.90;74.50;;;;;;6263541;28;20226;-81
2023/03/24 03:06:52;;;;;;;4.53;4.33;;;10.80;75.20;;;;;;6254509;28;20234;-81
2023/03/24 03:10:00;;;;;;;4.37;4.03;;;10.90;75.20;;;;;;6259913;28;20230;-80
2023/03/24 03:13:11;;;;;;;4.30;4.10;;;10.80;75.40;;;;;;6260490;28;20618;-81
2023/03/24 03:16:20;;;;;;;4.70;4.30;;;10.70;75.80;;;;;;6254328;28;20412;-81
2023/03/24 03:19:28;;;;;;;4.03;3.87;;;10.70;76.10;;;;;;6249894;28;20713;-82
2023/03/24 03:22:38;;;;;;;5.23;4.70;;;10.70;76.30;;;;;;6276341;28;20334;-82
2023/03/24 03:25:49;;;;;;;4.60;4.43;;;10.60;76.50;;;;;;6262404;28;20226;-82
2023/03/24 03:28:58;;;;;;;4.10;4.00;;;10.60;76.70;;;;;;6262801;28;20495;-82
2023/03/24 03:32:06;;;;;;;4.70;4.40;;;10.50;77.00;;;;;;6252430;28;20926;-81
2023/03/24 03:35:16;;;;;;;4.43;4.23;;;10.50;77.00;;;;;;6262345;28;20718;-82
2023/03/24 03:38:28;;;;;;;5.27;5.03;;;10.60;77.20;;;;;;6253206;28;20492;-80
2023/03/24 03:41:32;;;;;;;5.13;4.80;;;10.60;77.10;;;;;;6255783;28;20238;-81
2023/03/24 03:44:36;;;;;;;5.10;4.80;;;10.60;77.20;;;;;;6252025;28;20313;-82
2023/03/24 03:47:40;;;;;;;5.03;4.53;;;10.50;77.50;;;;;;6255392;28;20686;-80
2023/03/24 03:50:44;;;;;;;5.13;4.77;;;10.50;77.50;;;;;;6255296;28;20226;-84
2023/03/24 03:53:51;;;;;;;4.57;4.37;;;10.60;77.40;;;;;;6248726;28;20234;-82
2023/03/24 03:56:55;;;;;;;4.90;4.57;;;10.60;77.50;;;;;;6267079;28;20256;-81
2023/03/24 04:00:10;;;;;;;4.77;4.63;;;10.70;77.20;;;;;;6263653;28;20859;-81
2023/03/24 04:03:33;;;;;;;5.03;4.80;;;10.60;77.60;;;;;;6264478;28;20237;-81
2023/03/24 04:06:43;;;;;;;5.67;5.27;;;10.50;78.10;;;;;;6243618;28;20252;-81
2023/03/24 04:09:58;;;;;;;5.37;5.17;;;10.50;78.30;;;;;;6256762;28;20256;-81
2023/03/24 04:13:14;;;;;;;5.03;4.83;;;10.50;78.20;;;;;;6271731;28;20237;-82
2023/03/24 04:16:25;;;;;;;5.67;5.37;;;10.60;78.20;;;;;;6285141;28;20261;-83
2023/03/24 04:19:44;;;;;;;5.60;5.00;;;10.60;78.10;;;;;;6271064;28;20234;-82
2023/03/24 04:23:01;;;;;;;5.70;5.33;;;10.60;78.30;;;;;;6256179;28;20219;-80
2023/03/24 04:26:15;;;;;;;5.40;5.10;;;10.60;78.40;;;;;;6259530;28;20317;-80
2023/03/24 04:29:26;;;;;;;6.13;5.67;;;10.60;78.40;;;;;;6245379;28;20230;-82
2023/03/24 04:32:35;;;;;;;5.23;5.00;;;10.60;78.60;;;;;;6245805;28;23076;-83
2023/03/24 04:35:44;;;;;;;5.80;5.60;;;10.60;78.60;;;;;;6254581;28;20234;-83
2023/03/24 04:38:52;;;;;;;6.13;5.83;;;10.70;78.50;;;;;;6253174;28;20246;-79
2023/03/24 04:41:57;;;;;;;6.60;6.20;;;10.60;78.60;;;;;;6250054;28;20312;-84
2023/03/24 04:45:04;;;;;;;6.20;5.73;;;10.60;78.70;;;;;;6259433;28;20240;-84
2023/03/24 04:48:12;;;;;;;6.40;6.10;;;10.60;78.70;;;;;;6260077;28;20253;-83
2023/03/24 04:51:19;;;;;;;6.77;6.47;;;10.70;78.60;;;;;;6246054;28;20237;-85
2023/03/24 04:54:23;;;;;;;6.07;5.70;;;10.80;78.50;;;;;;6256952;28;20238;-84
2023/03/24 04:57:26;;;;;;;6.70;6.30;;;10.80;78.20;;;;;;6280838;28;20232;-82
2023/03/24 05:00:31;;;;;;;6.60;6.10;;;10.90;77.90;;;;;;6286133;28;20414;-84
2023/03/24 05:03:36;;;;;;;6.80;6.40;;;11.00;77.80;;;;;;6271246;28;20279;-86
2023/03/24 05:06:40;;;;;;;6.27;5.97;;;10.90;78.00;;;;;;6273044;28;20241;-83
2023/03/24 05:09:44;;;;;;;7.03;6.53;;;11.10;77.70;;;;;;6245148;28;20227;-83
2023/03/24 05:12:47;;;;;;;6.80;6.40;;;11.00;77.80;;;;;;6260880;28;20228;-83
2023/03/24 05:15:52;;;;;;;7.47;6.97;;;11.10;77.70;;;;;;6254037;28;20600;-80
2023/03/24 05:18:56;;;;;;;6.57;6.30;;;11.10;77.60;;;;;;6251996;28;20234;-80
2023/03/24 05:21:59;;;;;;;7.07;6.60;;;11.10;77.60;;;;;;6256796;28;20238;-82
2023/03/24 05:25:03;;;;;;;7.30;6.73;;;11.10;77.60;;;;;;6252506;28;20738;-83
2023/03/24 05:28:06;;;;;;;7.73;6.27;;;11.10;77.30;;;;;;6245507;28;20725;-83
2023/03/24 05:31:09;;;;;;;6.80;6.40;;;11.10;77.30;;;;;;6252097;28;20242;-82
2023/03/24 05:34:14;;;;;;;6.43;6.03;;;11.20;77.20;;;;;;6251054;28;20619;-80
2023/03/24 05:37:18;;;;;;;6.43;6.13;;;11.30;77.20;;;;;;6246643;28;20314;-80
2023/03/24 05:40:21;;;;;;;6.60;6.10;;;11.40;76.70;;;;;;6256116;28;20616;-84
2023/03/24 05:43:24;;;;;;;6.67;6.33;;;11.50;76.40;;;;;;6268962;28;20230;-81
2023/03/24 05:46:27;;;;;;;6.40;6.10;;;11.50;76.40;;;;;;6253622;28;20757;-85
2023/03/24 05:49:32;;;;;;;6.20;6.00;;;11.50;76.40;;;;;;6265163;28;20253;-79
2023/03/24 05:52:35;;;;;;;6.57;6.10;;;11.50;76.40;;;;;;6276715;28;20312;-84
2023/03/24 05:55:39;;;;;;;6.67;6.30;;;11.50;76.30;;;;;;6262691;28;20239;-83
2023/03/24 05:58:43;;;;;;;6.43;6.07;;;11.50;76.20;;;;;;6246157;28;20697;-79
2023/03/24 06:01:47;;;;;;;6.43;6.03;;;11.60;76.30;;;;;;6260118;28;20253;-83
2023/03/24 06:04:52;;;;;;;6.60;6.13;;;11.60;76.20;;;;;;6261388;28;20226;-82
2023/03/24 06:07:57;;;;;;;6.87;6.33;;;11.60;76.30;;;;;;6260657;28;20904;-84
2023/03/24 06:11:01;;;;;;;5.90;5.60;;;11.60;76.20;;;;;;6257949;28;20380;-83
2023/03/24 06:14:06;;;;;;;7.00;6.10;;;11.70;76.00;;;;;;6259069;28;20306;-80
2023/03/24 06:17:13;;;;;;;6.20;5.87;;;11.70;75.90;;;;;;6256256;28;20420;-85
2023/03/24 06:20:18;;;;;;;6.40;6.00;;;11.70;75.90;;;;;;6256782;28;20644;-83
2023/03/24 06:23:22;;;;;;;6.37;6.03;;;11.80;75.90;;;;;;6256849;28;20245;-82
2023/03/24 06:26:29;;;;;;;7.23;6.67;;;11.70;76.00;;;;;;6263499;28;20226;-83
2023/03/24 06:29:32;;;;;;;6.17;5.77;;;11.70;76.20;;;;;;6258283;28;20368;-81
2023/03/24 06:32:37;;;;;;;5.60;5.23;;;11.70;76.30;;;;;;6253144;28;20229;-80
2023/03/24 06:35:42;;;;;;;6.27;5.87;;;11.80;76.20;;;;;;6261462;28;20269;-84
2023/03/24 06:38:45;;;;;;;6.30;6.00;;;11.90;75.80;;;;;;6284121;28;20230;-78
2023/03/24 06:41:49;;;;;;;6.53;6.13;;;12.00;75.70;;;;;;6281928;28;20622;-80
2023/03/24 06:44:52;;;;;;;6.50;6.17;;;11.90;75.90;;;;;;6275825;28;20229;-82
2023/03/24 06:47:55;;;;;;;5.53;5.33;;;12.00;75.70;;;;;;6282828;28;20627;-79
2023/03/24 06:51:00;;;;;;;5.87;5.57;;;12.00;75.50;;;;;;6286204;28;20688;-83
2023/03/24 06:54:03;;;;;;;5.50;5.20;;;12.10;75.60;;;;;;6256425;28;20241;-80
2023/03/24 06:57:07;;;;;;;5.80;5.60;;;12.10;75.50;;;;;;6267243;28;20254;-79
2023/03/24 07:00:12;;;;;;;5.70;5.40;;;12.10;75.40;;;;;;6249368;28;20678;-84
2023/03/24 07:03:15;;;;;;;6.10;5.83;;;12.30;75.40;;;;;;6257337;28;20233;-82
2023/03/24 07:06:22;;;;;;;6.17;5.63;;;12.30;75.00;;;;;;6260566;28;20635;-82
2023/03/24 07:09:26;;;;;;;5.73;5.23;;;12.30;75.30;;;;;;6267156;28;20320;-79
2023/03/24 07:12:29;;;;;;;6.57;6.17;;;12.30;75.10;;;;;;6278194;28;20238;-81
2023/03/24 07:15:33;;;;;;;6.43;6.10;;;12.40;75.30;;;;;;6256433;28;20237;-82
2023/03/24 07:18:36;;;;;;;6.30;5.80;;;12.50;74.80;;;;;;6263943;28;20230;-82
2023/03/24 07:21:41;;;;;;;6.53;5.53;;;12.50;74.90;;;;;;6254389;28;20245;-82
2023/03/24 07:24:44;;;;;;;5.90;5.60;;;12.60;74.80;;;;;;6262050;28;20236;-80
2023/03/24 07:27:47;;;;;;;5.47;5.20;;;12.50;74.90;;;;;;6280201;28;20234;-80
2023/03/24 07:30:50;;;;;;;5.60;5.40;;;12.50;75.00;;;;;;6275819;28;20411;-82
2023/03/24 07:33:57;;;;;;;6.10;5.57;;;12.70;74.50;;;;;;6280342;28;20714;-80
2023/03/24 07:37:05;;;;;;;6.07;5.70;;;12.80;74.60;;;;;;6294917;28;20230;-85
2023/03/24 07:40:10;;;;;;;6.20;5.90;;;12.90;74.30;;;;;;6311766;28;20301;-78
2023/03/24 07:43:14;;;;;;;5.20;5.00;;;13.10;73.80;;;;;;6312329;28;20210;-76
2023/03/24 07:46:17;;;;;;;5.50;5.20;;;13.20;73.70;;;;;;6305997;28;20313;-78
2023/03/24 07:49:21;;;;;;;5.30;5.10;;;13.30;73.00;;;;;;6281331;28;20226;-77
2023/03/24 07:52:25;;;;;;;5.37;5.07;;;13.40;72.20;;;;;;6291549;28;20295;-78
2023/03/24 07:55:29;;;;;;;5.03;4.73;;;13.40;72.50;;;;;;6288290;28;20428;-76
2023/03/24 07:58:32;;;;;;;4.97;4.77;;;13.50;72.10;;;;;;6288512;28;20226;-77
2023/03/24 08:01:36;;;;;;;5.53;4.97;;;13.40;72.00;;;;;;6286030;28;20268;-84
2023/03/24 08:04:41;;;;;;;6.03;5.67;;;13.40;72.10;;;;;;6232945;28;20308;-79
2023/03/24 08:07:52;;;;;;;5.83;5.40;;;13.30;72.60;;;;;;6251550;28;20242;-83
2023/03/24 08:10:55;;;;;;;5.40;5.20;;;13.30;73.00;;;;;;6247393;28;20246;-83
2023/03/24 08:13:58;;;;;;;6.20;5.80;;;13.10;73.20;;;;;;6249179;28;20336;-85
2023/03/24 08:17:01;;;;;;;6.00;5.60;;;13.00;73.60;;;;;;6255594;28;20265;-83
2023/03/24 08:20:13;;;;;;;5.30;5.10;;;12.90;74.10;;;;;;6256593;28;20246;-86
2023/03/24 08:23:18;;;;;;;5.70;5.40;;;12.90;74.80;;;;;;6262489;28;20793;-85
2023/03/24 08:26:25;;;;;;;6.00;5.60;;;12.90;74.50;;;;;;6269442;28;20244;-85
2023/03/24 08:29:28;;;;;;;5.80;5.50;;;12.90;74.60;;;;;;6275679;28;20237;-81
2023/03/24 08:32:31;;;;;;;6.23;5.73;;;12.90;74.50;;;;;;6297020;28;20233;-79
2023/03/24 08:35:38;;;;;;;7.60;6.50;;;12.90;74.40;;;;;;6300041;28;20230;-78
2023/03/24 08:38:43;;;;;;;6.27;5.77;;;12.80;74.30;;;;;;6297182;28;20221;-81
2023/03/24 08:41:48;;;;;;;6.10;5.70;;;12.80;74.30;;;;;;6308720;28;20311;-77
2023/03/24 08:44:52;;;;;;;6.60;6.20;;;12.80;74.60;;;;;;6315242;28;20225;-79
2023/03/24 08:47:57;;;;;;;7.00;6.60;;;12.80;74.60;;;;;;6307429;28;20218;-80
2023/03/24 08:51:00;;;;;;;7.17;6.70;;;12.70;74.70;;;;;;6310046;28;20230;-79
2023/03/24 08:54:05;;;;;;;6.33;6.03;;;12.70;74.90;;;;;;6275917;28;20241;-82
2023/03/24 08:57:08;;;;;;;6.57;6.10;;;12.70;74.90;;;;;;6256146;28;20381;-84
2023/03/24 09:00:14;;;;;;;5.63;5.30;;;12.80;74.80;;;;;;6261602;28;20248;-85
2023/03/24 09:03:22;;;;;;;6.43;6.03;;;12.80;74.70;;;;;;6269128;28;20237;-83
2023/03/24 09:06:26;;;;;;;6.07;5.77;;;12.90;74.70;;;;;;6261810;28;20264;-84
2023/03/24 09:09:33;;;;;;;5.27;5.07;;;12.90;74.70;;;;;;6256817;28;20259;-83
2023/03/24 09:12:37;;;;;;;6.23;5.93;;;13.00;74.60;;;;;;6261266;28;20745;-79
2023/03/24 09:15:40;;;;;;;5.80;5.50;;;13.10;73.70;;;;;;6251757;28;20233;-79
2023/03/24 09:18:44;;;;;;;6.13;5.70;;;13.20;73.20;;;;;;6264159;28;20241;-83
2023/03/24 09:21:48;;;;;;;5.53;5.33;;;13.30;73.10;;;;;;6259973;28;20257;-80
2023/03/24 09:24:53;;;;;;;5.90;5.47;;;13.10;73.20;;;;;;6253557;28;20225;-81
2023/03/24 09:27:56;;;;;;;5.90;5.60;;;13.10;73.30;;;;;;6260387;28;20729;-80
2023/03/24 09:31:01;;;;;;;5.40;5.20;;;13.10;73.20;;;;;;6279433;28;20248;-85
2023/03/24 09:34:04;;;;;;;6.10;5.70;;;13.30;72.70;;;;;;6281570;28;20237;-81
2023/03/24 09:37:07;;;;;;;5.90;5.47;;;13.30;72.80;;;;;;6283650;28;20323;-82
2023/03/24 09:40:20;;;;;;;6.10;5.80;;;13.30;72.50;;;;;;6276607;28;20779;-80
2023/03/24 09:43:31;;;;;;;5.53;5.33;;;13.40;72.70;;;;;;6243450;28;20249;-81
2023/03/24 09:46:38;;;;;;;5.00;4.80;;;13.50;72.60;;;;;;6252566;28;20227;-84
2023/03/24 09:49:42;;;;;;;5.60;5.30;;;13.70;71.80;;;;;;6251707;28;20237;-86
2023/03/24 09:52:50;;;;;;;5.30;5.00;;;14.10;71.50;;;;;;6255730;28;20252;-82
2023/03/24 09:55:55;;;;;;;5.90;5.50;;;14.30;70.50;;;;;;6260853;28;20592;-80
2023/03/24 09:59:05;;;;;;;6.97;6.30;;;14.50;70.10;;;;;;6262628;28;20226;-81
2023/03/24 10:02:13;;;;;;;5.70;5.40;;;14.60;69.50;;;;;;6255057;28;20268;-80
2023/03/24 10:05:20;;;;;;;5.07;4.87;;;14.70;69.20;;;;;;6250151;28;20257;-82
2023/03/24 10:08:28;;;;;;;9.77;8.70;;;14.80;69.60;;;;;;6258274;28;20242;-83
2023/03/24 10:11:42;;;;;;;5.47;5.00;;;14.80;69.00;;;;;;6251231;28;20692;-82
2023/03/24 10:14:55;;;;;;;5.00;4.70;;;14.70;69.20;;;;;;6249194;28;20227;-82
2023/03/24 10:18:05;;;;;;;4.87;4.57;;;14.80;68.40;;;;;;6255330;28;20726;-81
2023/03/24 10:21:17;;;;;;;4.57;4.23;;;14.80;68.40;;;;;;6253493;28;20719;-86
2023/03/24 10:24:27;;;;;;;4.10;4.00;;;14.80;67.20;;;;;;6260921;28;20230;-84
2023/03/24 10:27:37;;;;;;;4.10;3.73;;;14.90;66.80;;;;;;6258834;28;20689;-81
2023/03/24 10:30:42;;;;;;;3.70;3.57;;;15.00;66.00;;;;;;6252201;28;20242;-82
2023/03/24 10:33:47;;;;;;;4.10;4.00;;;15.00;66.00;;;;;;6258262;28;20634;-82
2023/03/24 10:36:52;;;;;;;4.50;4.30;;;14.90;66.40;;;;;;6268089;28;20333;-76
2023/03/24 10:39:56;;;;;;;4.40;4.20;;;14.90;66.70;;;;;;6288213;28;20362;-78
2023/03/24 10:43:03;;;;;;;4.10;3.90;;;15.10;67.00;;;;;;6294327;28;20218;-83
2023/03/24 10:46:15;;;;;;;4.70;4.60;;;15.30;66.40;;;;;;6267775;28;20241;-81
2023/03/24 10:49:20;;;;;;;4.33;4.13;;;15.40;66.40;;;;;;6277618;28;20300;-82
2023/03/24 10:52:24;;;;;;;4.77;4.13;;;15.50;66.00;;;;;;6274865;28;20238;-85
2023/03/24 10:55:31;;;;;;;4.10;4.00;;;15.60;65.60;;;;;;6259429;28;20230;-84
2023/03/24 10:58:40;;;;;;;4.47;4.10;;;15.60;65.50;;;;;;6254790;28;20722;-82
2023/03/24 11:01:43;;;;;;;4.43;4.13;;;15.60;65.20;;;;;;6278118;28;20379;-82
2023/03/24 11:04:52;;;;;;;4.43;4.23;;;15.60;65.40;;;;;;6282562;28;20575;-82
2023/03/24 11:08:00;;;;;;;4.33;4.10;;;15.70;65.00;;;;;;6282942;28;20234;-80
2023/03/24 11:11:15;;;;;;;4.20;4.00;;;15.80;64.40;;;;;;6284175;28;20245;-84
2023/03/24 11:14:25;;;;;;;3.67;3.57;;;15.70;64.60;;;;;;6284643;28;20604;-85
2023/03/24 11:17:28;;;;;;;4.63;4.43;;;15.60;64.70;;;;;;6264790;28;20230;-83
2023/03/24 11:20:35;;;;;;;3.97;3.80;;;15.60;64.40;;;;;;6259505;28;20544;-83
2023/03/24 11:23:41;;;;;;;4.37;3.87;;;15.60;63.80;;;;;;6284116;28;20317;-77
2023/03/24 11:26:49;;;;;;;4.10;3.90;;;15.60;63.40;;;;;;6262665;28;20273;-82
2023/03/24 11:29:55;;;;;;;3.70;3.60;;;15.80;63.70;;;;;;6264612;28;20237;-82
2023/03/24 11:32:59;;;;;;;4.40;4.10;;;16.00;63.40;;;;;;6259501;28;20238;-85
2023/03/24 11:36:08;;;;;;;3.97;3.87;;;16.20;62.80;;;;;;6252700;28;20951;-83
2023/03/24 11:39:16;;;;;;;3.40;3.40;;;16.20;62.10;;;;;;6259823;28;22739;-80
2023/03/24 11:42:19;;;;;;;4.20;4.10;;;16.00;61.80;;;;;;6279774;28;20611;-79
2023/03/24 11:45:28;;;;;;;4.10;4.00;;;16.00;62.30;;;;;;6274952;28;20240;-80
2023/03/24 11:48:39;;;;;;;3.87;3.67;;;16.20;62.00;;;;;;6284511;28;20239;-80
2023/03/24 11:51:47;;;;;;;3.83;3.73;;;16.20;61.30;;;;;;6278764;28;20317;-79
2023/03/24 11:54:51;;;;;;;4.00;3.83;;;16.20;61.40;;;;;;6264614;28;20234;-82
2023/03/24 11:57:59;;;;;;;7.20;4.30;;;16.40;60.30;;;;;;6273793;28;20301;-82
2023/03/24 12:01:12;;;;;;;3.73;3.53;;;16.40;61.00;;;;;;6280886;28;20366;-80
2023/03/24 12:04:28;;;;;;;4.00;3.70;;;16.40;61.10;;;;;;6254191;28;20231;-80
2023/03/24 12:07:49;;;;;;;3.80;3.60;;;16.50;60.40;;;;;;6233320;28;20238;-79
2023/03/24 12:11:06;;;;;;;4.10;4.00;;;16.40;60.20;;;;;;6272864;28;20266;-80
2023/03/24 12:14:09;;;;;;;4.10;4.00;;;16.20;60.40;;;;;;6267272;28;20290;-82
2023/03/24 12:17:16;;;;;;;4.10;3.80;;;16.10;60.80;;;;;;6260069;28;20244;-83
2023/03/24 12:20:23;;;;;;;3.53;3.47;;;16.10;60.50;;;;;;6263796;28;20249;-80
2023/03/24 12:23:37;;;;;;;3.60;3.50;;;16.20;60.40;;;;;;6263535;28;20308;-82
2023/03/24 12:26:41;;;;;;;3.87;3.70;;;16.20;60.30;;;;;;6270565;28;20250;-78
2023/03/24 12:29:59;;;;;;;3.90;3.70;;;16.10;60.70;;;;;;6272077;28;20233;-78
2023/03/24 12:33:27;;;;;;;3.80;3.70;;;16.10;60.00;;;;;;6283148;28;20238;-84
2023/03/24 12:36:42;;;;;;;4.53;4.33;;;16.00;60.00;;;;;;6262307;28;20290;-84
2023/03/24 12:39:55;;;;;;;3.80;3.80;;;16.00;60.70;;;;;;6256932;28;20246;-80
2023/03/24 12:43:09;;;;;;;4.07;3.87;;;16.00;59.30;;;;;;6244911;28;20417;-85
2023/03/24 12:46:29;;;;;;;3.47;3.30;;;16.00;58.40;;;;;;6277411;28;20263;-82
2023/03/24 12:50:01;;;;;;;4.53;3.57;;;16.00;58.70;;;;;;6280047;28;20242;-78
2023/03/24 12:53:22;;;;;;;3.50;3.30;;;16.00;57.50;;;;;;6273737;28;20247;-81
2023/03/24 12:56:31;;;;;;;3.40;3.10;;;15.80;57.50;;;;;;6254574;28;20231;-81
2023/03/24 12:59:38;;;;;;;3.93;3.63;;;15.80;57.90;;;;;;6257345;28;20237;-81
2023/03/24 13:02:46;;;;;;;3.87;3.67;;;15.80;57.70;;;;;;6252301;28;20238;-84
2023/03/24 13:05:54;;;;;;;4.17;3.60;;;15.60;57.80;;;;;;6258302;28;20249;-81
2023/03/24 13:09:23;;;;;;;3.77;3.70;;;15.50;57.60;;;;;;6265050;28;20241;-79
2023/03/24 13:12:31;;;;;;;4.03;3.77;;;15.50;58.00;;;;;;6255792;28;20257;-83
2023/03/24 13:15:38;;;;;;;4.00;3.70;;;15.40;58.60;;;;;;6252508;28;20304;-81
2023/03/24 13:18:44;;;;;;;4.07;3.87;;;15.30;58.50;;;;;;6261814;28;20242;-83
2023/03/24 13:21:51;;;;;;;3.90;3.70;;;15.30;59.10;;;;;;6257246;28;20258;-79
2023/03/24 13:24:55;;;;;;;4.07;3.97;;;15.20;59.70;;;;;;6267855;28;20346;-84
2023/03/24 13:28:04;;;;;;;4.43;4.20;;;15.00;60.50;;;;;;6279335;28;20244;-83
2023/03/24 13:31:09;;;;;;;4.67;4.30;;;14.90;61.50;;;;;;6283572;28;20238;-83
2023/03/24 13:34:24;;;;;;;4.10;4.00;;;14.70;63.40;;;;;;6307191;28;20281;-77
2023/03/24 13:37:36;;;;;;;4.97;4.67;;;14.50;65.30;;;;;;6306732;28;20217;-79
2023/03/24 13:40:40;;;;;;;4.70;4.40;;;14.10;66.50;;;;;;6284384;28;20270;-76
2023/03/24 13:43:49;;;;;;;4.70;4.50;;;14.00;66.20;;;;;;6291796;28;20213;-79
2023/03/24 13:47:15;;;;;;;4.30;4.20;;;13.90;66.00;;;;;;6287113;28;20237;-78
2023/03/24 13:50:18;;;;;;;4.90;4.60;;;13.90;65.30;;;;;;6280625;28;20294;-77
2023/03/24 13:53:33;;;;;;;5.63;5.40;;;13.80;65.80;;;;;;6270332;28;20229;-76
2023/03/24 13:56:41;;;;;;;4.30;4.10;;;13.90;65.40;;;;;;6283718;28;20294;-79
2023/03/24 14:00:10;;;;;;;4.33;4.23;;;13.80;64.70;;;;;;6289417;28;20241;-77
2023/03/24 14:03:19;;;;;;;3.87;3.77;;;13.90;64.30;;;;;;6302202;28;20255;-77
2023/03/24 14:06:44;;;;;;;3.83;3.73;;;13.90;63.70;;;;;;6314846;28;20248;-77
2023/03/24 14:10:00;;;;;;;3.53;3.43;;;13.90;63.30;;;;;;6302069;28;20321;-76
2023/03/24 14:13:04;;;;;;;3.67;3.53;;;13.90;63.30;;;;;;6303656;28;20224;-78
2023/03/24 14:16:36;;;;;;;3.13;3.03;;;13.90;62.50;;;;;;6291021;28;20252;-80
2023/03/24 14:19:42;;;;;;;3.87;3.63;;;13.40;62.00;;;;;;6283091;28;20230;-76
2023/03/24 14:22:47;;;;;;;3.50;3.30;;;13.00;63.00;;;;;;6275663;28;20260;-80
2023/03/24 14:25:56;;;;;;;3.33;3.23;;;13.00;62.70;;;;;;6295632;28;20228;-80
2023/03/24 14:28:59;;;;;;;3.40;3.20;;;13.00;63.10;;;;;;6289346;28;20238;-79
2023/03/24 14:32:04;;;;;;;3.90;3.70;;;13.00;62.70;;;;;;6298363;28;20286;-77
2023/03/24 14:35:25;;;;;;;4.10;3.90;;;13.00;63.60;;;;;;6288943;28;20218;-79
2023/03/24 14:38:29;;;;;;;3.63;3.50;;;13.10;63.30;;;;;;6288199;28;20225;-78
2023/03/24 14:41:37;;;;;;;4.30;3.70;;;13.10;63.80;;;;;;6272506;28;20498;-84
2023/03/24 14:44:55;;;;;;;3.40;3.10;;;13.20;64.20;;;;;;6258560;28;20868;-83
2023/03/24 14:48:00;;;;;;;3.83;3.60;;;13.50;63.70;;;;;;6236852;28;20226;-82
2023/03/24 14:51:16;;;;;;;3.93;3.73;;;13.60;63.70;;;;;;6267016;28;20230;-83
2023/03/24 14:54:26;;;;;;;3.73;3.50;;;13.50;63.40;;;;;;6267385;28;20246;-84
2023/03/24 14:57:34;;;;;;;3.80;3.70;;;13.60;63.20;;;;;;6244718;28;20864;-85
2023/03/24 15:00:43;;;;;;;3.60;3.50;;;13.70;63.60;;;;;;6300375;28;20268;-83
2023/03/24 15:04:08;;;;;;;3.43;3.33;;;13.90;63.30;;;;;;6257010;28;20238;-83
2023/03/24 15:07:13;;;;;;;3.43;3.23;;;14.10;63.30;;;;;;6263105;28;20368;-79
2023/03/24 15:10:19;;;;;;;3.67;3.47;;;14.40;63.00;;;;;;6261164;28;20872;-82
2023/03/24 15:13:36;;;;;;;4.50;3.20;;;14.40;62.30;;;;;;6246500;28;20227;-82
2023/03/24 15:16:39;;;;;;;3.30;3.20;;;14.40;61.60;;;;;;6261686;28;20591;-82
2023/03/24 15:19:43;;;;;;;4.17;3.47;;;14.20;61.90;;;;;;6269786;28;20233;-82
2023/03/24 15:22:46;;;;;;;3.03;2.93;;;14.20;61.80;;;;;;6263126;28;20223;-81
2023/03/24 15:25:49;;;;;;;3.57;3.27;;;14.40;62.00;;;;;;6257920;28;20230;-82
2023/03/24 15:29:02;;;;;;;3.53;3.00;;;14.40;60.50;;;;;;6262638;28;20702;-81
2023/03/24 15:32:07;;;;;;;3.10;3.00;;;14.50;60.20;;;;;;6255726;28;20241;-82
2023/03/24 15:35:15;;;;;;;3.40;3.00;;;14.50;59.10;;;;;;6266497;28;20671;-83
2023/03/24 15:38:22;;;;;;;4.20;3.00;;;14.60;58.30;;;;;;6264491;28;20289;-81
2023/03/24 15:41:25;;;;;;;2.53;2.43;;;14.60;59.10;;;;;;6268578;28;20238;-82
2023/03/24 15:44:30;;;;;;;3.13;2.93;;;14.60;58.00;;;;;;6270122;28;20392;-84
2023/03/24 15:47:38;;;;;;;4.90;2.77;;;14.60;57.70;;;;;;6241033;28;20250;-86
2023/03/24 15:50:53;;;;;;;2.87;2.70;;;14.60;56.70;;;;;;6261044;28;20734;-86
2023/03/24 15:53:59;;;;;;;3.53;3.30;;;14.50;56.10;;;;;;6262106;28;20317;-83
2023/03/24 15:57:15;;;;;;;3.13;3.03;;;14.40;56.50;;;;;;6264920;28;20254;-84
2023/03/24 16:00:25;;;;;;;3.43;3.13;;;14.30;55.90;;;;;;6253775;28;20223;-83
2023/03/24 16:03:32;;;;;;;3.30;3.10;;;14.20;56.00;;;;;;6259852;28;20238;-82
2023/03/24 16:06:37;;;;;;;3.20;2.90;;;14.20;55.90;;;;;;6252587;28;20858;-85
2023/03/24 16:09:40;;;;;;;3.50;3.17;;;14.20;56.10;;;;;;6254690;28;20734;-80
2023/03/24 16:12:43;;;;;;;3.53;3.23;;;14.10;55.60;;;;;;6255384;28;20245;-83
2023/03/24 16:15:54;;;;;;;3.70;3.40;;;14.10;55.70;;;;;;6264305;28;20238;-80
2023/03/24 16:18:58;;;;;;;3.40;3.10;;;14.00;56.30;;;;;;6257975;28;20609;-84